sensor_id;sensor_type;location;lat;lon;timestamp;P1;durP1;ratioP1;P2;durP2;ratioP2
71187;SDS011;58893;53.130;8.158;2022-11-15T00:00:43;28.03;;;13.73;;
71187;SDS011;58893;53.130;8.158;2022-11-15T00:03:08;26.27;;;13.17;;
71187;SDS011;58893;53.130;8.158;2022-11-15T00:05:34;26.37;;;13.50;;
71187;SDS011;58893;53.130;8.158;2022-11-15T00:08:01;29.53;;;13.27;;
71187;SDS011;58893;53.130;8.158;2022-11-15T00:10:26;25.67;;;12.10;;
71187;SDS011;58893;53.130;8.158;2022-11-15T00:12:52;27.00;;;13.10;;
71187;SDS011;58893;53.130;8.158;2022-11-15T00:15:18;31.73;;;12.87;;
71187;SDS011;58893;53.130;8.158;2022-11-15T00:17:43;27.23;;;12.63;;
71187;SDS011;58893;53.130;8.158;2022-11-15T00:20:09;25.00;;;11.60;;
71187;SDS011;58893;53.130;8.158;2022-11-15T00:22:36;25.90;;;13.77;;
71187;SDS011;58893;53.130;8.158;2022-11-15T00:25:02;30.50;;;11.97;;
71187;SDS011;58893;53.130;8.158;2022-11-15T00:27:28;28.17;;;12.80;;
71187;SDS011;58893;53.130;8.158;2022-11-15T00:29:53;26.10;;;12.10;;
71187;SDS011;58893;53.130;8.158;2022-11-15T00:32:19;27.80;;;13.40;;
71187;SDS011;58893;53.130;8.158;2022-11-15T00:34:45;24.30;;;11.40;;
71187;SDS011;58893;53.130;8.158;2022-11-15T00:37:10;38.03;;;13.23;;
71187;SDS011;58893;53.130;8.158;2022-11-15T00:39:36;23.73;;;12.47;;
71187;SDS011;58893;53.130;8.158;2022-11-15T00:42:02;27.40;;;11.60;;
71187;SDS011;58893;53.130;8.158;2022-11-15T00:44:27;26.77;;;12.57;;
71187;SDS011;58893;53.130;8.158;2022-11-15T00:46:53;26.07;;;11.97;;
71187;SDS011;58893;53.130;8.158;2022-11-15T00:49:19;27.93;;;12.40;;
71187;SDS011;58893;53.130;8.158;2022-11-15T00:51:44;28.23;;;12.37;;
71187;SDS011;58893;53.130;8.158;2022-11-15T00:54:10;21.93;;;12.10;;
71187;SDS011;58893;53.130;8.158;2022-11-15T00:56:35;24.37;;;11.20;;
71187;SDS011;58893;53.130;8.158;2022-11-15T00:59:01;26.13;;;11.83;;
71187;SDS011;58893;53.130;8.158;2022-11-15T01:01:27;29.17;;;13.20;;
71187;SDS011;58893;53.130;8.158;2022-11-15T01:03:52;33.93;;;13.57;;
71187;SDS011;58893;53.130;8.158;2022-11-15T01:06:18;26.30;;;11.60;;
71187;SDS011;58893;53.130;8.158;2022-11-15T01:08:43;26.10;;;12.10;;
71187;SDS011;58893;53.130;8.158;2022-11-15T01:11:10;24.47;;;12.20;;
71187;SDS011;58893;53.130;8.158;2022-11-15T01:13:37;27.63;;;12.17;;
71187;SDS011;58893;53.130;8.158;2022-11-15T01:16:10;28.43;;;11.83;;
71187;SDS011;58893;53.130;8.158;2022-11-15T01:18:38;23.63;;;10.53;;
71187;SDS011;58893;53.130;8.158;2022-11-15T01:21:14;25.80;;;11.47;;
71187;SDS011;58893;53.130;8.158;2022-11-15T01:23:42;25.13;;;10.97;;
71187;SDS011;58893;53.130;8.158;2022-11-15T01:26:10;27.77;;;12.00;;
71187;SDS011;58893;53.130;8.158;2022-11-15T01:28:38;25.10;;;12.50;;
71187;SDS011;58893;53.130;8.158;2022-11-15T01:31:06;24.07;;;11.73;;
71187;SDS011;58893;53.130;8.158;2022-11-15T01:33:36;27.47;;;12.23;;
71187;SDS011;58893;53.130;8.158;2022-11-15T01:36:05;24.57;;;11.87;;
71187;SDS011;58893;53.130;8.158;2022-11-15T01:38:31;27.33;;;11.20;;
71187;SDS011;58893;53.130;8.158;2022-11-15T01:40:57;29.10;;;13.33;;
71187;SDS011;58893;53.130;8.158;2022-11-15T01:43:24;30.30;;;12.70;;
71187;SDS011;58893;53.130;8.158;2022-11-15T01:48:34;29.43;;;11.57;;
71187;SDS011;58893;53.130;8.158;2022-11-15T01:51:01;23.37;;;11.17;;
71187;SDS011;58893;53.130;8.158;2022-11-15T01:53:31;24.57;;;11.73;;
71187;SDS011;58893;53.130;8.158;2022-11-15T01:55:59;25.20;;;10.30;;
71187;SDS011;58893;53.130;8.158;2022-11-15T01:58:31;23.67;;;11.83;;
71187;SDS011;58893;53.130;8.158;2022-11-15T02:00:58;28.40;;;12.87;;
71187;SDS011;58893;53.130;8.158;2022-11-15T02:03:29;26.10;;;11.77;;
71187;SDS011;58893;53.130;8.158;2022-11-15T02:06:17;23.83;;;10.23;;
71187;SDS011;58893;53.130;8.158;2022-11-15T02:08:43;31.00;;;13.00;;
71187;SDS011;58893;53.130;8.158;2022-11-15T02:11:09;28.67;;;12.23;;
71187;SDS011;58893;53.130;8.158;2022-11-15T02:13:35;25.20;;;12.53;;
71187;SDS011;58893;53.130;8.158;2022-11-15T02:18:41;27.30;;;12.57;;
71187;SDS011;58893;53.130;8.158;2022-11-15T02:21:40;31.33;;;13.50;;
71187;SDS011;58893;53.130;8.158;2022-11-15T02:27:06;26.30;;;13.07;;
71187;SDS011;58893;53.130;8.158;2022-11-15T02:32:16;21.43;;;11.80;;
71187;SDS011;58893;53.130;8.158;2022-11-15T02:42:47;26.93;;;11.33;;
71187;SDS011;58893;53.130;8.158;2022-11-15T02:45:39;27.47;;;12.73;;
71187;SDS011;58893;53.130;8.158;2022-11-15T02:48:11;25.10;;;12.07;;
71187;SDS011;58893;53.130;8.158;2022-11-15T02:50:37;22.97;;;11.70;;
71187;SDS011;58893;53.130;8.158;2022-11-15T02:53:03;24.30;;;10.77;;
71187;SDS011;58893;53.130;8.158;2022-11-15T02:55:32;24.10;;;11.70;;
71187;SDS011;58893;53.130;8.158;2022-11-15T03:07:03;26.87;;;11.40;;
71187;SDS011;58893;53.130;8.158;2022-11-15T03:09:52;27.63;;;12.47;;
71187;SDS011;58893;53.130;8.158;2022-11-15T03:15:28;35.53;;;12.53;;
71187;SDS011;58893;53.130;8.158;2022-11-15T03:18:07;27.03;;;12.30;;
71187;SDS011;58893;53.130;8.158;2022-11-15T03:20:40;24.47;;;11.50;;
71187;SDS011;58893;53.130;8.158;2022-11-15T03:23:09;21.07;;;10.63;;
71187;SDS011;58893;53.130;8.158;2022-11-15T03:25:38;24.83;;;12.77;;
71187;SDS011;58893;53.130;8.158;2022-11-15T03:28:09;27.20;;;10.53;;
71187;SDS011;58893;53.130;8.158;2022-11-15T03:30:37;22.43;;;11.17;;
71187;SDS011;58893;53.130;8.158;2022-11-15T03:33:05;26.43;;;12.07;;
71187;SDS011;58893;53.130;8.158;2022-11-15T03:35:35;24.90;;;12.80;;
71187;SDS011;58893;53.130;8.158;2022-11-15T03:38:28;25.33;;;12.60;;
71187;SDS011;58893;53.130;8.158;2022-11-15T03:41:01;22.17;;;10.63;;
71187;SDS011;58893;53.130;8.158;2022-11-15T03:46:07;23.60;;;10.23;;
71187;SDS011;58893;53.130;8.158;2022-11-15T03:48:46;27.30;;;11.43;;
71187;SDS011;58893;53.130;8.158;2022-11-15T03:51:17;29.17;;;11.40;;
71187;SDS011;58893;53.130;8.158;2022-11-15T03:53:43;25.03;;;11.47;;
71187;SDS011;58893;53.130;8.158;2022-11-15T03:56:09;25.53;;;11.10;;
71187;SDS011;58893;53.130;8.158;2022-11-15T03:58:34;31.57;;;11.70;;
71187;SDS011;58893;53.130;8.158;2022-11-15T04:01:00;25.00;;;10.77;;
71187;SDS011;58893;53.130;8.158;2022-11-15T04:03:25;20.27;;;10.10;;
71187;SDS011;58893;53.130;8.158;2022-11-15T04:05:51;23.60;;;11.07;;
71187;SDS011;58893;53.130;8.158;2022-11-15T04:08:17;24.80;;;11.87;;
71187;SDS011;58893;53.130;8.158;2022-11-15T04:10:42;25.50;;;11.97;;
71187;SDS011;58893;53.130;8.158;2022-11-15T04:13:08;23.37;;;10.80;;
71187;SDS011;58893;53.130;8.158;2022-11-15T04:15:34;24.87;;;10.87;;
71187;SDS011;58893;53.130;8.158;2022-11-15T04:18:00;27.37;;;10.57;;
71187;SDS011;58893;53.130;8.158;2022-11-15T04:20:26;30.57;;;11.50;;
71187;SDS011;58893;53.130;8.158;2022-11-15T04:23:14;23.80;;;11.63;;
71187;SDS011;58893;53.130;8.158;2022-11-15T04:26:04;21.83;;;10.73;;
71187;SDS011;58893;53.130;8.158;2022-11-15T04:28:35;24.27;;;11.33;;
71187;SDS011;58893;53.130;8.158;2022-11-15T04:31:21;26.50;;;11.40;;
71187;SDS011;58893;53.130;8.158;2022-11-15T04:33:47;25.20;;;9.80;;
71187;SDS011;58893;53.130;8.158;2022-11-15T04:36:12;28.80;;;11.63;;
71187;SDS011;58893;53.130;8.158;2022-11-15T04:38:57;23.03;;;10.57;;
71187;SDS011;58893;53.130;8.158;2022-11-15T04:41:22;26.37;;;11.43;;
71187;SDS011;58893;53.130;8.158;2022-11-15T04:43:48;19.37;;;8.73;;
71187;SDS011;58893;53.130;8.158;2022-11-15T04:46:14;30.50;;;11.33;;
71187;SDS011;58893;53.130;8.158;2022-11-15T04:48:39;29.53;;;11.27;;
71187;SDS011;58893;53.130;8.158;2022-11-15T04:51:05;26.70;;;10.50;;
71187;SDS011;58893;53.130;8.158;2022-11-15T04:53:30;25.70;;;10.43;;
71187;SDS011;58893;53.130;8.158;2022-11-15T04:55:56;22.53;;;10.30;;
71187;SDS011;58893;53.130;8.158;2022-11-15T04:58:21;24.90;;;10.90;;
71187;SDS011;58893;53.130;8.158;2022-11-15T05:00:47;22.40;;;10.27;;
71187;SDS011;58893;53.130;8.158;2022-11-15T05:03:13;19.30;;;9.30;;
71187;SDS011;58893;53.130;8.158;2022-11-15T05:05:57;22.27;;;9.77;;
71187;SDS011;58893;53.130;8.158;2022-11-15T05:08:24;28.63;;;11.83;;
71187;SDS011;58893;53.130;8.158;2022-11-15T05:10:49;20.43;;;10.63;;
71187;SDS011;58893;53.130;8.158;2022-11-15T05:13:15;22.30;;;9.53;;
71187;SDS011;58893;53.130;8.158;2022-11-15T05:15:41;24.07;;;9.50;;
71187;SDS011;58893;53.130;8.158;2022-11-15T05:18:06;21.03;;;9.90;;
71187;SDS011;58893;53.130;8.158;2022-11-15T05:20:32;17.30;;;10.17;;
71187;SDS011;58893;53.130;8.158;2022-11-15T05:22:58;22.10;;;10.20;;
71187;SDS011;58893;53.130;8.158;2022-11-15T05:25:24;26.30;;;10.73;;
71187;SDS011;58893;53.130;8.158;2022-11-15T05:27:50;21.67;;;9.80;;
71187;SDS011;58893;53.130;8.158;2022-11-15T05:30:15;18.13;;;8.67;;
71187;SDS011;58893;53.130;8.158;2022-11-15T05:32:42;21.03;;;8.83;;
71187;SDS011;58893;53.130;8.158;2022-11-15T05:35:08;19.80;;;9.57;;
71187;SDS011;58893;53.130;8.158;2022-11-15T05:37:40;22.83;;;9.50;;
71187;SDS011;58893;53.130;8.158;2022-11-15T05:40:06;21.30;;;9.30;;
71187;SDS011;58893;53.130;8.158;2022-11-15T05:42:32;21.13;;;9.80;;
71187;SDS011;58893;53.130;8.158;2022-11-15T05:44:58;20.70;;;9.23;;
71187;SDS011;58893;53.130;8.158;2022-11-15T05:47:26;17.70;;;8.80;;
71187;SDS011;58893;53.130;8.158;2022-11-15T05:49:54;21.47;;;8.73;;
71187;SDS011;58893;53.130;8.158;2022-11-15T05:52:22;14.23;;;8.30;;
71187;SDS011;58893;53.130;8.158;2022-11-15T05:54:52;18.73;;;7.50;;
71187;SDS011;58893;53.130;8.158;2022-11-15T05:57:18;19.07;;;9.23;;
71187;SDS011;58893;53.130;8.158;2022-11-15T05:59:45;17.77;;;9.50;;
71187;SDS011;58893;53.130;8.158;2022-11-15T06:02:10;17.30;;;9.37;;
71187;SDS011;58893;53.130;8.158;2022-11-15T06:04:36;20.60;;;9.27;;
71187;SDS011;58893;53.130;8.158;2022-11-15T06:07:02;18.80;;;9.20;;
71187;SDS011;58893;53.130;8.158;2022-11-15T06:09:27;17.10;;;8.10;;
71187;SDS011;58893;53.130;8.158;2022-11-15T06:11:53;19.10;;;9.47;;
71187;SDS011;58893;53.130;8.158;2022-11-15T06:14:19;18.60;;;9.07;;
71187;SDS011;58893;53.130;8.158;2022-11-15T06:16:45;19.77;;;7.80;;
71187;SDS011;58893;53.130;8.158;2022-11-15T06:19:10;14.27;;;8.07;;
71187;SDS011;58893;53.130;8.158;2022-11-15T06:21:36;19.47;;;9.17;;
71187;SDS011;58893;53.130;8.158;2022-11-15T06:24:01;18.17;;;9.00;;
71187;SDS011;58893;53.130;8.158;2022-11-15T06:26:27;23.80;;;8.63;;
71187;SDS011;58893;53.130;8.158;2022-11-15T06:28:53;16.57;;;8.20;;
71187;SDS011;58893;53.130;8.158;2022-11-15T06:31:18;18.57;;;10.17;;
71187;SDS011;58893;53.130;8.158;2022-11-15T06:33:44;16.50;;;8.10;;
71187;SDS011;58893;53.130;8.158;2022-11-15T06:36:12;15.73;;;8.67;;
71187;SDS011;58893;53.130;8.158;2022-11-15T06:38:42;14.77;;;6.87;;
71187;SDS011;58893;53.130;8.158;2022-11-15T06:41:09;17.97;;;9.30;;
71187;SDS011;58893;53.130;8.158;2022-11-15T06:43:36;14.47;;;7.70;;
71187;SDS011;58893;53.130;8.158;2022-11-15T06:46:02;13.60;;;7.53;;
71187;SDS011;58893;53.130;8.158;2022-11-15T06:48:29;15.50;;;8.53;;
71187;SDS011;58893;53.130;8.158;2022-11-15T06:50:59;13.43;;;8.00;;
71187;SDS011;58893;53.130;8.158;2022-11-15T06:53:26;18.87;;;8.50;;
71187;SDS011;58893;53.130;8.158;2022-11-15T06:55:52;17.13;;;7.37;;
71187;SDS011;58893;53.130;8.158;2022-11-15T06:58:20;17.70;;;8.57;;
71187;SDS011;58893;53.130;8.158;2022-11-15T07:00:46;21.53;;;8.20;;
71187;SDS011;58893;53.130;8.158;2022-11-15T07:03:12;37.63;;;8.47;;
71187;SDS011;58893;53.130;8.158;2022-11-15T07:05:37;23.33;;;8.60;;
71187;SDS011;58893;53.130;8.158;2022-11-15T07:08:03;18.60;;;8.80;;
71187;SDS011;58893;53.130;8.158;2022-11-15T07:10:29;15.97;;;8.13;;
71187;SDS011;58893;53.130;8.158;2022-11-15T07:12:55;13.97;;;8.43;;
71187;SDS011;58893;53.130;8.158;2022-11-15T07:15:22;17.80;;;8.57;;
71187;SDS011;58893;53.130;8.158;2022-11-15T07:17:49;22.70;;;8.47;;
71187;SDS011;58893;53.130;8.158;2022-11-15T07:20:16;15.17;;;8.00;;
71187;SDS011;58893;53.130;8.158;2022-11-15T07:22:42;21.37;;;9.23;;
71187;SDS011;58893;53.130;8.158;2022-11-15T07:25:10;17.83;;;7.97;;
71187;SDS011;58893;53.130;8.158;2022-11-15T07:27:36;17.47;;;9.07;;
71187;SDS011;58893;53.130;8.158;2022-11-15T07:30:02;18.57;;;8.10;;
71187;SDS011;58893;53.130;8.158;2022-11-15T07:32:28;15.03;;;7.57;;
71187;SDS011;58893;53.130;8.158;2022-11-15T07:34:54;17.13;;;9.23;;
71187;SDS011;58893;53.130;8.158;2022-11-15T07:37:20;23.67;;;9.03;;
71187;SDS011;58893;53.130;8.158;2022-11-15T07:39:45;16.23;;;8.03;;
71187;SDS011;58893;53.130;8.158;2022-11-15T07:42:11;15.50;;;7.83;;
71187;SDS011;58893;53.130;8.158;2022-11-15T07:44:55;14.60;;;7.17;;
71187;SDS011;58893;53.130;8.158;2022-11-15T07:47:21;15.93;;;7.77;;
71187;SDS011;58893;53.130;8.158;2022-11-15T07:49:46;15.47;;;9.20;;
71187;SDS011;58893;53.130;8.158;2022-11-15T07:52:12;16.67;;;7.57;;
71187;SDS011;58893;53.130;8.158;2022-11-15T07:54:38;15.50;;;8.40;;
71187;SDS011;58893;53.130;8.158;2022-11-15T07:57:04;32.43;;;7.87;;
71187;SDS011;58893;53.130;8.158;2022-11-15T07:59:31;12.80;;;7.83;;
71187;SDS011;58893;53.130;8.158;2022-11-15T08:01:57;12.87;;;7.57;;
71187;SDS011;58893;53.130;8.158;2022-11-15T08:04:23;18.40;;;8.07;;
71187;SDS011;58893;53.130;8.158;2022-11-15T08:06:48;20.57;;;8.87;;
71187;SDS011;58893;53.130;8.158;2022-11-15T08:09:14;18.60;;;8.13;;
71187;SDS011;58893;53.130;8.158;2022-11-15T08:11:40;13.43;;;7.10;;
71187;SDS011;58893;53.130;8.158;2022-11-15T08:14:05;14.43;;;8.07;;
71187;SDS011;58893;53.130;8.158;2022-11-15T08:16:31;17.13;;;9.17;;
71187;SDS011;58893;53.130;8.158;2022-11-15T08:18:57;13.53;;;8.20;;
71187;SDS011;58893;53.130;8.158;2022-11-15T08:21:22;14.50;;;8.20;;
71187;SDS011;58893;53.130;8.158;2022-11-15T08:23:49;12.10;;;7.10;;
71187;SDS011;58893;53.130;8.158;2022-11-15T08:26:14;12.77;;;7.73;;
71187;SDS011;58893;53.130;8.158;2022-11-15T08:28:41;15.70;;;8.47;;
71187;SDS011;58893;53.130;8.158;2022-11-15T08:31:12;17.83;;;7.40;;
71187;SDS011;58893;53.130;8.158;2022-11-15T08:33:39;10.63;;;6.90;;
71187;SDS011;58893;53.130;8.158;2022-11-15T08:36:05;17.40;;;8.17;;
71187;SDS011;58893;53.130;8.158;2022-11-15T08:38:31;17.40;;;7.60;;
71187;SDS011;58893;53.130;8.158;2022-11-15T08:41:00;18.03;;;7.60;;
71187;SDS011;58893;53.130;8.158;2022-11-15T08:43:28;15.03;;;6.83;;
71187;SDS011;58893;53.130;8.158;2022-11-15T08:45:58;21.90;;;7.77;;
71187;SDS011;58893;53.130;8.158;2022-11-15T08:48:24;15.30;;;8.77;;
71187;SDS011;58893;53.130;8.158;2022-11-15T08:50:53;13.40;;;8.63;;
71187;SDS011;58893;53.130;8.158;2022-11-15T08:53:21;17.50;;;7.83;;
71187;SDS011;58893;53.130;8.158;2022-11-15T08:55:48;13.87;;;7.20;;
71187;SDS011;58893;53.130;8.158;2022-11-15T08:58:13;14.57;;;7.33;;
71187;SDS011;58893;53.130;8.158;2022-11-15T09:00:39;16.50;;;7.40;;
71187;SDS011;58893;53.130;8.158;2022-11-15T09:03:05;20.23;;;8.00;;
71187;SDS011;58893;53.130;8.158;2022-11-15T09:05:32;19.83;;;8.53;;
71187;SDS011;58893;53.130;8.158;2022-11-15T09:08:01;18.37;;;7.10;;
71187;SDS011;58893;53.130;8.158;2022-11-15T09:10:27;14.07;;;7.67;;
71187;SDS011;58893;53.130;8.158;2022-11-15T09:12:52;18.07;;;8.40;;
71187;SDS011;58893;53.130;8.158;2022-11-15T09:15:18;31.60;;;8.57;;
71187;SDS011;58893;53.130;8.158;2022-11-15T09:17:44;18.50;;;8.63;;
71187;SDS011;58893;53.130;8.158;2022-11-15T09:20:10;16.13;;;8.70;;
71187;SDS011;58893;53.130;8.158;2022-11-15T09:22:36;22.67;;;9.43;;
71187;SDS011;58893;53.130;8.158;2022-11-15T09:25:03;17.10;;;9.20;;
71187;SDS011;58893;53.130;8.158;2022-11-15T09:27:30;13.67;;;7.57;;
71187;SDS011;58893;53.130;8.158;2022-11-15T09:29:56;14.93;;;7.70;;
71187;SDS011;58893;53.130;8.158;2022-11-15T09:32:21;16.90;;;10.00;;
71187;SDS011;58893;53.130;8.158;2022-11-15T09:34:48;15.40;;;8.37;;
71187;SDS011;58893;53.130;8.158;2022-11-15T09:37:14;16.07;;;8.77;;
71187;SDS011;58893;53.130;8.158;2022-11-15T09:39:40;25.17;;;9.60;;
71187;SDS011;58893;53.130;8.158;2022-11-15T09:53:25;12.80;;;7.53;;
71187;SDS011;58893;53.130;8.158;2022-11-15T09:56:08;17.93;;;9.10;;
71187;SDS011;58893;53.130;8.158;2022-11-15T09:58:50;25.67;;;9.73;;
71187;SDS011;58893;53.130;8.158;2022-11-15T10:01:39;17.47;;;8.80;;
71187;SDS011;58893;53.130;8.158;2022-11-15T10:04:08;20.47;;;9.60;;
71187;SDS011;58893;53.130;8.158;2022-11-15T10:06:34;22.47;;;9.90;;
71187;SDS011;58893;53.130;8.158;2022-11-15T10:09:09;15.93;;;8.23;;
71187;SDS011;58893;53.130;8.158;2022-11-15T10:11:39;21.90;;;9.33;;
71187;SDS011;58893;53.130;8.158;2022-11-15T10:14:18;20.83;;;9.63;;
71187;SDS011;58893;53.130;8.158;2022-11-15T10:24:58;15.27;;;9.07;;
71187;SDS011;58893;53.130;8.158;2022-11-15T10:27:37;14.17;;;8.07;;
71187;SDS011;58893;53.130;8.158;2022-11-15T10:30:06;17.27;;;8.50;;
71187;SDS011;58893;53.130;8.158;2022-11-15T10:32:37;18.07;;;9.50;;
71187;SDS011;58893;53.130;8.158;2022-11-15T10:38:04;13.03;;;7.87;;
71187;SDS011;58893;53.130;8.158;2022-11-15T10:40:31;20.20;;;8.20;;
71187;SDS011;58893;53.130;8.158;2022-11-15T10:45:35;17.47;;;7.93;;
71187;SDS011;58893;53.130;8.158;2022-11-15T10:50:43;12.80;;;7.00;;
71187;SDS011;58893;53.130;8.158;2022-11-15T10:56:12;11.10;;;6.83;;
71187;SDS011;58893;53.130;8.158;2022-11-15T10:58:44;16.00;;;6.87;;
71187;SDS011;58893;53.130;8.158;2022-11-15T11:03:43;12.87;;;7.50;;
71187;SDS011;58893;53.130;8.158;2022-11-15T11:08:36;12.90;;;7.50;;
71187;SDS011;58893;53.130;8.158;2022-11-15T11:11:03;13.47;;;8.43;;
71187;SDS011;58893;53.130;8.158;2022-11-15T11:21:11;14.30;;;7.57;;
71187;SDS011;58893;53.130;8.158;2022-11-15T11:23:54;18.73;;;7.10;;
71187;SDS011;58893;53.130;8.158;2022-11-15T11:30:08;8.10;;;6.00;;
71187;SDS011;58893;53.130;8.158;2022-11-15T11:32:50;12.53;;;6.70;;
71187;SDS011;58893;53.130;8.158;2022-11-15T11:49:10;10.27;;;6.20;;
71187;SDS011;58893;53.130;8.158;2022-11-15T11:52:05;10.50;;;5.30;;
71187;SDS011;58893;53.130;8.158;2022-11-15T11:54:36;13.30;;;6.47;;
71187;SDS011;58893;53.130;8.158;2022-11-15T11:57:13;9.47;;;5.10;;
71187;SDS011;58893;53.130;8.158;2022-11-15T11:59:52;7.17;;;4.93;;
71187;SDS011;58893;53.130;8.158;2022-11-15T12:02:28;6.53;;;4.20;;
71187;SDS011;58893;53.130;8.158;2022-11-15T12:05:12;9.37;;;5.27;;
71187;SDS011;58893;53.130;8.158;2022-11-15T12:07:43;9.57;;;4.70;;
71187;SDS011;58893;53.130;8.158;2022-11-15T12:10:22;9.70;;;5.50;;
71187;SDS011;58893;53.130;8.158;2022-11-15T12:12:55;9.03;;;4.87;;
71187;SDS011;58893;53.130;8.158;2022-11-15T12:15:38;11.63;;;5.60;;
71187;SDS011;58893;53.130;8.158;2022-11-15T12:18:08;8.00;;;4.20;;
71187;SDS011;58893;53.130;8.158;2022-11-15T12:20:40;6.17;;;4.13;;
71187;SDS011;58893;53.130;8.158;2022-11-15T12:23:28;7.27;;;4.70;;
71187;SDS011;58893;53.130;8.158;2022-11-15T12:26:04;11.47;;;5.30;;
71187;SDS011;58893;53.130;8.158;2022-11-15T12:28:45;12.40;;;5.17;;
71187;SDS011;58893;53.130;8.158;2022-11-15T12:34:43;7.10;;;4.40;;
71187;SDS011;58893;53.130;8.158;2022-11-15T12:36:51;8.27;;;4.03;;
71187;SDS011;58893;53.130;8.158;2022-11-15T12:39:18;5.50;;;4.00;;
71187;SDS011;58893;53.130;8.158;2022-11-15T12:41:45;9.27;;;4.27;;
71187;SDS011;58893;53.130;8.158;2022-11-15T12:57:25;5.00;;;3.83;;
71187;SDS011;58893;53.130;8.158;2022-11-15T12:59:58;4.83;;;3.77;;
71187;SDS011;58893;53.130;8.158;2022-11-15T13:02:51;9.40;;;3.80;;
71187;SDS011;58893;53.130;8.158;2022-11-15T13:08:10;5.00;;;3.57;;
71187;SDS011;58893;53.130;8.158;2022-11-15T13:19:46;4.73;;;3.87;;
71187;SDS011;58893;53.130;8.158;2022-11-15T13:22:13;10.83;;;3.93;;
71187;SDS011;58893;53.130;8.158;2022-11-15T13:24:58;4.27;;;3.20;;
71187;SDS011;58893;53.130;8.158;2022-11-15T13:27:26;5.60;;;4.20;;
71187;SDS011;58893;53.130;8.158;2022-11-15T13:29:52;6.73;;;3.60;;
71187;SDS011;58893;53.130;8.158;2022-11-15T13:32:18;10.47;;;3.90;;
71187;SDS011;58893;53.130;8.158;2022-11-15T13:34:48;17.63;;;4.77;;
71187;SDS011;58893;53.130;8.158;2022-11-15T13:39:46;5.37;;;3.83;;
71187;SDS011;58893;53.130;8.158;2022-11-15T13:42:16;3.03;;;2.73;;
71187;SDS011;58893;53.130;8.158;2022-11-15T13:44:59;5.97;;;3.60;;
71187;SDS011;58893;53.130;8.158;2022-11-15T13:47:27;22.43;;;3.57;;
71187;SDS011;58893;53.130;8.158;2022-11-15T13:49:56;3.87;;;2.70;;
71187;SDS011;58893;53.130;8.158;2022-11-15T13:52:22;5.67;;;3.23;;
71187;SDS011;58893;53.130;8.158;2022-11-15T13:57:48;6.70;;;3.50;;
71187;SDS011;58893;53.130;8.158;2022-11-15T14:03:05;4.60;;;2.77;;
71187;SDS011;58893;53.130;8.158;2022-11-15T14:06:06;3.20;;;2.90;;
71187;SDS011;58893;53.130;8.158;2022-11-15T14:08:32;3.83;;;2.87;;
71187;SDS011;58893;53.130;8.158;2022-11-15T14:11:06;3.57;;;2.90;;
71187;SDS011;58893;53.130;8.158;2022-11-15T14:13:35;3.07;;;2.77;;
71187;SDS011;58893;53.130;8.158;2022-11-15T14:18:45;4.93;;;2.70;;
71187;SDS011;58893;53.130;8.158;2022-11-15T14:21:16;3.97;;;2.90;;
71187;SDS011;58893;53.130;8.158;2022-11-15T14:23:43;9.83;;;2.93;;
71187;SDS011;58893;53.130;8.158;2022-11-15T14:28:54;3.23;;;2.20;;
71187;SDS011;58893;53.130;8.158;2022-11-15T14:31:20;4.43;;;3.17;;
71187;SDS011;58893;53.130;8.158;2022-11-15T14:33:47;3.50;;;2.87;;
71187;SDS011;58893;53.130;8.158;2022-11-15T14:36:20;2.93;;;2.37;;
71187;SDS011;58893;53.130;8.158;2022-11-15T14:38:46;4.20;;;3.37;;
71187;SDS011;58893;53.130;8.158;2022-11-15T14:41:22;9.97;;;5.30;;
71187;SDS011;58893;53.130;8.158;2022-11-15T14:43:49;11.77;;;6.13;;
71187;SDS011;58893;53.130;8.158;2022-11-15T14:46:16;9.77;;;5.60;;
71187;SDS011;58893;53.130;8.158;2022-11-15T14:48:42;9.37;;;5.03;;
71187;SDS011;58893;53.130;8.158;2022-11-15T14:51:18;8.40;;;4.67;;
71187;SDS011;58893;53.130;8.158;2022-11-15T14:53:44;8.87;;;4.97;;
71187;SDS011;58893;53.130;8.158;2022-11-15T14:56:11;7.90;;;4.60;;
71187;SDS011;58893;53.130;8.158;2022-11-15T14:58:37;5.13;;;4.07;;
71187;SDS011;58893;53.130;8.158;2022-11-15T15:01:09;6.63;;;3.47;;
71187;SDS011;58893;53.130;8.158;2022-11-15T15:03:46;5.37;;;2.80;;
71187;SDS011;58893;53.130;8.158;2022-11-15T15:06:12;6.20;;;3.83;;
71187;SDS011;58893;53.130;8.158;2022-11-15T15:08:41;9.87;;;3.57;;
71187;SDS011;58893;53.130;8.158;2022-11-15T15:11:10;9.03;;;3.27;;
71187;SDS011;58893;53.130;8.158;2022-11-15T15:13:41;3.73;;;2.87;;
71187;SDS011;58893;53.130;8.158;2022-11-15T15:16:06;5.90;;;3.70;;
71187;SDS011;58893;53.130;8.158;2022-11-15T15:18:32;5.57;;;4.10;;
71187;SDS011;58893;53.130;8.158;2022-11-15T15:20:58;5.10;;;3.27;;
71187;SDS011;58893;53.130;8.158;2022-11-15T15:23:31;5.10;;;2.73;;
71187;SDS011;58893;53.130;8.158;2022-11-15T15:25:57;10.33;;;3.17;;
71187;SDS011;58893;53.130;8.158;2022-11-15T15:28:23;6.23;;;2.60;;
71187;SDS011;58893;53.130;8.158;2022-11-15T15:30:49;6.43;;;2.43;;
71187;SDS011;58893;53.130;8.158;2022-11-15T15:33:15;5.37;;;2.90;;
71187;SDS011;58893;53.130;8.158;2022-11-15T15:35:41;6.67;;;2.60;;
71187;SDS011;58893;53.130;8.158;2022-11-15T15:38:13;4.10;;;2.10;;
71187;SDS011;58893;53.130;8.158;2022-11-15T15:40:40;4.33;;;2.50;;
71187;SDS011;58893;53.130;8.158;2022-11-15T15:43:06;3.80;;;2.63;;
71187;SDS011;58893;53.130;8.158;2022-11-15T15:45:34;4.53;;;3.17;;
71187;SDS011;58893;53.130;8.158;2022-11-15T15:48:02;5.90;;;3.07;;
71187;SDS011;58893;53.130;8.158;2022-11-15T15:50:29;4.97;;;2.70;;
71187;SDS011;58893;53.130;8.158;2022-11-15T15:52:58;6.27;;;2.77;;
71187;SDS011;58893;53.130;8.158;2022-11-15T15:55:25;4.83;;;2.67;;
71187;SDS011;58893;53.130;8.158;2022-11-15T15:57:51;4.23;;;2.50;;
71187;SDS011;58893;53.130;8.158;2022-11-15T16:00:17;6.57;;;3.50;;
71187;SDS011;58893;53.130;8.158;2022-11-15T16:02:45;6.77;;;3.97;;
71187;SDS011;58893;53.130;8.158;2022-11-15T16:05:11;23.33;;;6.50;;
71187;SDS011;58893;53.130;8.158;2022-11-15T16:07:37;19.47;;;6.63;;
71187;SDS011;58893;53.130;8.158;2022-11-15T16:10:14;27.50;;;11.27;;
71187;SDS011;58893;53.130;8.158;2022-11-15T16:12:44;35.00;;;11.00;;
71187;SDS011;58893;53.130;8.158;2022-11-15T16:15:10;20.97;;;8.73;;
71187;SDS011;58893;53.130;8.158;2022-11-15T16:17:37;22.13;;;8.73;;
71187;SDS011;58893;53.130;8.158;2022-11-15T16:20:06;17.80;;;8.03;;
71187;SDS011;58893;53.130;8.158;2022-11-15T16:22:39;27.87;;;5.10;;
71187;SDS011;58893;53.130;8.158;2022-11-15T16:25:05;8.30;;;3.90;;
71187;SDS011;58893;53.130;8.158;2022-11-15T16:27:30;6.00;;;3.50;;
71187;SDS011;58893;53.130;8.158;2022-11-15T16:29:56;8.80;;;4.47;;
71187;SDS011;58893;53.130;8.158;2022-11-15T16:32:22;10.57;;;4.67;;
71187;SDS011;58893;53.130;8.158;2022-11-15T16:34:47;8.73;;;4.53;;
71187;SDS011;58893;53.130;8.158;2022-11-15T16:37:22;21.40;;;7.03;;
71187;SDS011;58893;53.130;8.158;2022-11-15T16:39:48;15.47;;;7.30;;
71187;SDS011;58893;53.130;8.158;2022-11-15T16:42:14;19.00;;;7.23;;
71187;SDS011;58893;53.130;8.158;2022-11-15T16:44:40;10.77;;;5.03;;
71187;SDS011;58893;53.130;8.158;2022-11-15T16:47:12;14.20;;;4.83;;
71187;SDS011;58893;53.130;8.158;2022-11-15T16:49:47;15.70;;;5.50;;
71187;SDS011;58893;53.130;8.158;2022-11-15T16:52:12;6.77;;;4.30;;
71187;SDS011;58893;53.130;8.158;2022-11-15T16:54:38;7.10;;;3.60;;
71187;SDS011;58893;53.130;8.158;2022-11-15T16:57:04;7.17;;;3.83;;
71187;SDS011;58893;53.130;8.158;2022-11-15T16:59:29;6.93;;;3.37;;